sensor_id;sensor_type;location;lat;lon;timestamp;P1;durP1;ratioP1;P2;durP2;ratioP2
21987;SDS011;11158;53.404;-1.510;2023-03-05T00:01:39;6.15;;;3.58;;
21987;SDS011;11158;53.404;-1.510;2023-03-05T00:04:06;5.05;;;3.22;;
21987;SDS011;11158;53.404;-1.510;2023-03-05T00:06:34;6.57;;;3.55;;
21987;SDS011;11158;53.404;-1.510;2023-03-05T00:09:00;4.97;;;3.30;;
21987;SDS011;11158;53.404;-1.510;2023-03-05T00:11:26;5.75;;;4.05;;
21987;SDS011;11158;53.404;-1.510;2023-03-05T00:13:54;5.15;;;3.53;;
21987;SDS011;11158;53.404;-1.510;2023-03-05T00:16:21;8.57;;;3.70;;
21987;SDS011;11158;53.404;-1.510;2023-03-05T00:18:48;4.07;;;3.15;;
21987;SDS011;11158;53.404;-1.510;2023-03-05T00:21:30;5.95;;;3.00;;
21987;SDS011;11158;53.404;-1.510;2023-03-05T00:23:58;5.78;;;2.90;;
21987;SDS011;11158;53.404;-1.510;2023-03-05T00:26:28;5.78;;;2.92;;
21987;SDS011;11158;53.404;-1.510;2023-03-05T00:28:55;5.55;;;2.80;;
21987;SDS011;11158;53.404;-1.510;2023-03-05T00:31:22;5.35;;;2.80;;
21987;SDS011;11158;53.404;-1.510;2023-03-05T00:33:53;4.75;;;2.80;;
21987;SDS011;11158;53.404;-1.510;2023-03-05T00:36:20;4.07;;;2.97;;
21987;SDS011;11158;53.404;-1.510;2023-03-05T00:38:46;4.22;;;3.03;;
21987;SDS011;11158;53.404;-1.510;2023-03-05T00:41:12;4.13;;;2.72;;
21987;SDS011;11158;53.404;-1.510;2023-03-05T00:43:37;4.97;;;2.97;;
21987;SDS011;11158;53.404;-1.510;2023-03-05T00:46:03;4.40;;;2.97;;
21987;SDS011;11158;53.404;-1.510;2023-03-05T00:48:29;4.38;;;2.80;;
21987;SDS011;11158;53.404;-1.510;2023-03-05T00:50:54;4.10;;;2.63;;
21987;SDS011;11158;53.404;-1.510;2023-03-05T00:53:20;5.60;;;2.80;;
21987;SDS011;11158;53.404;-1.510;2023-03-05T00:55:46;4.47;;;3.00;;
21987;SDS011;11158;53.404;-1.510;2023-03-05T00:58:12;5.15;;;3.30;;
21987;SDS011;11158;53.404;-1.510;2023-03-05T01:00:38;3.33;;;2.78;;
21987;SDS011;11158;53.404;-1.510;2023-03-05T01:03:04;6.65;;;2.83;;
21987;SDS011;11158;53.404;-1.510;2023-03-05T01:05:29;7.97;;;2.80;;
21987;SDS011;11158;53.404;-1.510;2023-03-05T01:07:55;4.63;;;3.17;;
21987;SDS011;11158;53.404;-1.510;2023-03-05T01:10:21;5.15;;;2.72;;
21987;SDS011;11158;53.404;-1.510;2023-03-05T01:12:51;3.72;;;2.70;;
21987;SDS011;11158;53.404;-1.510;2023-03-05T01:15:17;3.65;;;3.30;;
21987;SDS011;11158;53.404;-1.510;2023-03-05T01:17:43;5.20;;;3.47;;
21987;SDS011;11158;53.404;-1.510;2023-03-05T01:20:10;4.80;;;3.15;;
21987;SDS011;11158;53.404;-1.510;2023-03-05T01:22:37;7.00;;;3.47;;
21987;SDS011;11158;53.404;-1.510;2023-03-05T01:25:03;4.45;;;3.22;;
21987;SDS011;11158;53.404;-1.510;2023-03-05T01:27:29;6.55;;;3.17;;
21987;SDS011;11158;53.404;-1.510;2023-03-05T01:29:55;5.25;;;3.70;;
21987;SDS011;11158;53.404;-1.510;2023-03-05T01:32:20;5.03;;;3.78;;
21987;SDS011;11158;53.404;-1.510;2023-03-05T01:34:46;7.55;;;3.72;;
21987;SDS011;11158;53.404;-1.510;2023-03-05T01:37:12;6.18;;;3.80;;
21987;SDS011;11158;53.404;-1.510;2023-03-05T01:39:37;5.38;;;3.53;;
21987;SDS011;11158;53.404;-1.510;2023-03-05T01:42:03;7.30;;;3.42;;
21987;SDS011;11158;53.404;-1.510;2023-03-05T01:44:29;6.30;;;4.15;;
21987;SDS011;11158;53.404;-1.510;2023-03-05T01:46:55;6.50;;;3.75;;
21987;SDS011;11158;53.404;-1.510;2023-03-05T01:49:23;6.22;;;3.47;;
21987;SDS011;11158;53.404;-1.510;2023-03-05T01:54:45;7.13;;;3.75;;
21987;SDS011;11158;53.404;-1.510;2023-03-05T01:57:19;6.50;;;3.80;;
21987;SDS011;11158;53.404;-1.510;2023-03-05T01:59:48;9.98;;;4.13;;
21987;SDS011;11158;53.404;-1.510;2023-03-05T02:02:18;7.72;;;4.47;;
21987;SDS011;11158;53.404;-1.510;2023-03-05T02:05:06;5.07;;;4.03;;
21987;SDS011;11158;53.404;-1.510;2023-03-05T02:07:35;5.07;;;3.67;;
21987;SDS011;11158;53.404;-1.510;2023-03-05T02:10:20;7.43;;;4.30;;
21987;SDS011;11158;53.404;-1.510;2023-03-05T02:12:49;5.93;;;4.45;;
21987;SDS011;11158;53.404;-1.510;2023-03-05T02:15:16;8.05;;;4.47;;
21987;SDS011;11158;53.404;-1.510;2023-03-05T02:17:42;6.47;;;4.10;;
21987;SDS011;11158;53.404;-1.510;2023-03-05T02:20:09;7.18;;;4.57;;
21987;SDS011;11158;53.404;-1.510;2023-03-05T02:22:37;7.75;;;4.50;;
21987;SDS011;11158;53.404;-1.510;2023-03-05T02:25:16;6.38;;;5.15;;
21987;SDS011;11158;53.404;-1.510;2023-03-05T02:27:45;8.10;;;4.05;;
21987;SDS011;11158;53.404;-1.510;2023-03-05T02:30:17;6.93;;;4.38;;
21987;SDS011;11158;53.404;-1.510;2023-03-05T02:32:43;5.68;;;4.43;;
21987;SDS011;11158;53.404;-1.510;2023-03-05T02:35:09;7.03;;;4.13;;
21987;SDS011;11158;53.404;-1.510;2023-03-05T02:37:50;7.72;;;4.85;;
21987;SDS011;11158;53.404;-1.510;2023-03-05T02:40:15;8.13;;;4.43;;
21987;SDS011;11158;53.404;-1.510;2023-03-05T02:42:41;7.75;;;4.75;;
21987;SDS011;11158;53.404;-1.510;2023-03-05T02:45:07;7.88;;;4.85;;
21987;SDS011;11158;53.404;-1.510;2023-03-05T02:47:34;7.28;;;4.82;;
21987;SDS011;11158;53.404;-1.510;2023-03-05T02:50:00;6.30;;;5.22;;
21987;SDS011;11158;53.404;-1.510;2023-03-05T02:52:27;8.52;;;6.30;;
21987;SDS011;11158;53.404;-1.510;2023-03-05T02:54:53;9.90;;;6.20;;
21987;SDS011;11158;53.404;-1.510;2023-03-05T02:57:19;10.82;;;5.90;;
21987;SDS011;11158;53.404;-1.510;2023-03-05T02:59:45;10.35;;;6.88;;
21987;SDS011;11158;53.404;-1.510;2023-03-05T03:02:11;9.55;;;6.40;;
21987;SDS011;11158;53.404;-1.510;2023-03-05T03:04:37;7.95;;;6.43;;
21987;SDS011;11158;53.404;-1.510;2023-03-05T03:07:03;9.70;;;6.35;;
21987;SDS011;11158;53.404;-1.510;2023-03-05T03:09:29;8.25;;;5.88;;
21987;SDS011;11158;53.404;-1.510;2023-03-05T03:11:54;10.43;;;6.35;;
21987;SDS011;11158;53.404;-1.510;2023-03-05T03:14:20;9.30;;;6.22;;
21987;SDS011;11158;53.404;-1.510;2023-03-05T03:16:46;10.43;;;5.95;;
21987;SDS011;11158;53.404;-1.510;2023-03-05T03:19:12;7.78;;;5.93;;
21987;SDS011;11158;53.404;-1.510;2023-03-05T03:21:38;9.45;;;6.32;;
21987;SDS011;11158;53.404;-1.510;2023-03-05T03:24:04;11.88;;;6.38;;
21987;SDS011;11158;53.404;-1.510;2023-03-05T03:26:29;10.20;;;6.00;;
21987;SDS011;11158;53.404;-1.510;2023-03-05T03:28:56;7.90;;;6.32;;
21987;SDS011;11158;53.404;-1.510;2023-03-05T03:31:22;8.82;;;5.55;;
21987;SDS011;11158;53.404;-1.510;2023-03-05T03:33:48;8.57;;;6.22;;
21987;SDS011;11158;53.404;-1.510;2023-03-05T03:36:14;7.07;;;5.72;;
21987;SDS011;11158;53.404;-1.510;2023-03-05T03:38:39;9.38;;;5.40;;
21987;SDS011;11158;53.404;-1.510;2023-03-05T03:41:05;6.70;;;4.80;;
21987;SDS011;11158;53.404;-1.510;2023-03-05T03:43:32;8.63;;;5.40;;
21987;SDS011;11158;53.404;-1.510;2023-03-05T03:45:58;8.30;;;5.63;;
21987;SDS011;11158;53.404;-1.510;2023-03-05T03:48:24;8.95;;;4.97;;
21987;SDS011;11158;53.404;-1.510;2023-03-05T03:50:50;6.72;;;4.60;;
21987;SDS011;11158;53.404;-1.510;2023-03-05T03:53:15;6.80;;;5.30;;
21987;SDS011;11158;53.404;-1.510;2023-03-05T03:55:41;9.18;;;5.25;;
21987;SDS011;11158;53.404;-1.510;2023-03-05T03:58:10;8.73;;;4.75;;
21987;SDS011;11158;53.404;-1.510;2023-03-05T04:00:36;9.23;;;5.47;;
21987;SDS011;11158;53.404;-1.510;2023-03-05T04:03:01;9.23;;;4.88;;
21987;SDS011;11158;53.404;-1.510;2023-03-05T04:05:27;7.97;;;4.47;;
21987;SDS011;11158;53.404;-1.510;2023-03-05T04:07:53;6.82;;;4.30;;
21987;SDS011;11158;53.404;-1.510;2023-03-05T04:10:19;8.63;;;5.03;;
21987;SDS011;11158;53.404;-1.510;2023-03-05T04:12:46;7.28;;;4.63;;
21987;SDS011;11158;53.404;-1.510;2023-03-05T04:15:11;6.60;;;4.60;;
21987;SDS011;11158;53.404;-1.510;2023-03-05T04:17:37;7.22;;;4.47;;
21987;SDS011;11158;53.404;-1.510;2023-03-05T04:20:03;5.45;;;3.92;;
21987;SDS011;11158;53.404;-1.510;2023-03-05T04:22:31;6.63;;;4.60;;
21987;SDS011;11158;53.404;-1.510;2023-03-05T04:24:57;7.50;;;4.40;;
21987;SDS011;11158;53.404;-1.510;2023-03-05T04:27:22;7.07;;;4.00;;
21987;SDS011;11158;53.404;-1.510;2023-03-05T04:29:48;8.57;;;4.13;;
21987;SDS011;11158;53.404;-1.510;2023-03-05T04:32:14;8.07;;;3.97;;
21987;SDS011;11158;53.404;-1.510;2023-03-05T04:34:47;6.10;;;4.15;;
21987;SDS011;11158;53.404;-1.510;2023-03-05T04:37:12;7.40;;;4.15;;
21987;SDS011;11158;53.404;-1.510;2023-03-05T04:39:38;5.53;;;4.22;;
21987;SDS011;11158;53.404;-1.510;2023-03-05T04:42:03;7.07;;;4.13;;
21987;SDS011;11158;53.404;-1.510;2023-03-05T04:44:29;6.22;;;4.32;;
21987;SDS011;11158;53.404;-1.510;2023-03-05T04:46:55;5.80;;;3.95;;
21987;SDS011;11158;53.404;-1.510;2023-03-05T04:49:20;7.65;;;4.30;;
21987;SDS011;11158;53.404;-1.510;2023-03-05T04:51:46;7.18;;;4.10;;
21987;SDS011;11158;53.404;-1.510;2023-03-05T04:54:11;5.07;;;3.58;;
21987;SDS011;11158;53.404;-1.510;2023-03-05T04:56:37;7.07;;;3.45;;
21987;SDS011;11158;53.404;-1.510;2023-03-05T04:59:03;5.57;;;3.95;;
21987;SDS011;11158;53.404;-1.510;2023-03-05T05:01:28;9.10;;;3.60;;
21987;SDS011;11158;53.404;-1.510;2023-03-05T05:03:54;8.60;;;4.20;;
21987;SDS011;11158;53.404;-1.510;2023-03-05T05:06:19;4.30;;;3.40;;
21987;SDS011;11158;53.404;-1.510;2023-03-05T05:08:45;5.85;;;3.33;;
21987;SDS011;11158;53.404;-1.510;2023-03-05T05:11:11;7.85;;;3.90;;
21987;SDS011;11158;53.404;-1.510;2023-03-05T05:13:38;5.55;;;3.65;;
21987;SDS011;11158;53.404;-1.510;2023-03-05T05:16:07;5.35;;;3.30;;
21987;SDS011;11158;53.404;-1.510;2023-03-05T05:18:33;5.85;;;3.83;;
21987;SDS011;11158;53.404;-1.510;2023-03-05T05:20:58;7.30;;;3.65;;
21987;SDS011;11158;53.404;-1.510;2023-03-05T05:23:24;4.20;;;3.28;;
21987;SDS011;11158;53.404;-1.510;2023-03-05T05:25:59;5.65;;;3.80;;
21987;SDS011;11158;53.404;-1.510;2023-03-05T05:28:26;7.15;;;3.55;;
21987;SDS011;11158;53.404;-1.510;2023-03-05T05:30:52;5.22;;;2.90;;
21987;SDS011;11158;53.404;-1.510;2023-03-05T05:33:19;5.22;;;2.92;;
21987;SDS011;11158;53.404;-1.510;2023-03-05T05:35:45;4.65;;;2.90;;
21987;SDS011;11158;53.404;-1.510;2023-03-05T05:38:11;5.88;;;2.78;;
21987;SDS011;11158;53.404;-1.510;2023-03-05T05:40:37;3.63;;;2.67;;
21987;SDS011;11158;53.404;-1.510;2023-03-05T05:43:02;5.65;;;2.80;;
21987;SDS011;11158;53.404;-1.510;2023-03-05T05:45:28;3.72;;;2.65;;
21987;SDS011;11158;53.404;-1.510;2023-03-05T05:47:53;4.47;;;2.30;;
21987;SDS011;11158;53.404;-1.510;2023-03-05T05:50:19;5.47;;;2.67;;
21987;SDS011;11158;53.404;-1.510;2023-03-05T05:52:45;5.82;;;2.78;;
21987;SDS011;11158;53.404;-1.510;2023-03-05T05:55:11;4.40;;;2.30;;
21987;SDS011;11158;53.404;-1.510;2023-03-05T05:57:37;5.13;;;2.63;;
21987;SDS011;11158;53.404;-1.510;2023-03-05T06:00:04;3.72;;;2.40;;
21987;SDS011;11158;53.404;-1.510;2023-03-05T06:02:32;8.60;;;3.08;;
21987;SDS011;11158;53.404;-1.510;2023-03-05T06:04:58;5.57;;;3.00;;
21987;SDS011;11158;53.404;-1.510;2023-03-05T06:07:23;4.20;;;3.00;;
21987;SDS011;11158;53.404;-1.510;2023-03-05T06:09:49;5.60;;;2.90;;
21987;SDS011;11158;53.404;-1.510;2023-03-05T06:12:14;4.95;;;2.70;;
21987;SDS011;11158;53.404;-1.510;2023-03-05T06:14:40;5.57;;;2.45;;
21987;SDS011;11158;53.404;-1.510;2023-03-05T06:17:06;3.63;;;2.40;;
21987;SDS011;11158;53.404;-1.510;2023-03-05T06:19:31;4.18;;;2.20;;
21987;SDS011;11158;53.404;-1.510;2023-03-05T06:21:57;3.10;;;2.10;;
21987;SDS011;11158;53.404;-1.510;2023-03-05T06:24:22;2.95;;;2.10;;
21987;SDS011;11158;53.404;-1.510;2023-03-05T06:26:48;5.30;;;2.22;;
21987;SDS011;11158;53.404;-1.510;2023-03-05T06:29:14;3.40;;;2.13;;
21987;SDS011;11158;53.404;-1.510;2023-03-05T06:31:42;3.05;;;2.17;;
21987;SDS011;11158;53.404;-1.510;2023-03-05T06:34:07;4.07;;;2.47;;
21987;SDS011;11158;53.404;-1.510;2023-03-05T06:36:34;3.05;;;1.90;;
21987;SDS011;11158;53.404;-1.510;2023-03-05T06:38:59;4.43;;;2.30;;
21987;SDS011;11158;53.404;-1.510;2023-03-05T06:41:26;4.88;;;2.17;;
21987;SDS011;11158;53.404;-1.510;2023-03-05T06:43:54;4.25;;;2.30;;
21987;SDS011;11158;53.404;-1.510;2023-03-05T06:46:21;3.67;;;2.20;;
21987;SDS011;11158;53.404;-1.510;2023-03-05T06:48:49;2.83;;;2.50;;
21987;SDS011;11158;53.404;-1.510;2023-03-05T06:51:16;2.40;;;2.10;;
21987;SDS011;11158;53.404;-1.510;2023-03-05T06:53:46;2.97;;;2.10;;
21987;SDS011;11158;53.404;-1.510;2023-03-05T06:56:13;3.40;;;2.28;;
21987;SDS011;11158;53.404;-1.510;2023-03-05T06:58:41;3.58;;;2.40;;
21987;SDS011;11158;53.404;-1.510;2023-03-05T07:01:10;4.80;;;2.72;;
21987;SDS011;11158;53.404;-1.510;2023-03-05T07:03:37;6.93;;;2.67;;
21987;SDS011;11158;53.404;-1.510;2023-03-05T07:06:03;7.63;;;3.15;;
21987;SDS011;11158;53.404;-1.510;2023-03-05T07:08:30;3.28;;;2.72;;
21987;SDS011;11158;53.404;-1.510;2023-03-05T07:10:56;4.47;;;3.15;;
21987;SDS011;11158;53.404;-1.510;2023-03-05T07:13:21;4.60;;;2.78;;
21987;SDS011;11158;53.404;-1.510;2023-03-05T07:15:47;5.35;;;3.10;;
21987;SDS011;11158;53.404;-1.510;2023-03-05T07:18:12;7.30;;;3.28;;
21987;SDS011;11158;53.404;-1.510;2023-03-05T07:20:38;4.65;;;3.20;;
21987;SDS011;11158;53.404;-1.510;2023-03-05T07:23:03;5.72;;;2.70;;
21987;SDS011;11158;53.404;-1.510;2023-03-05T07:25:29;4.53;;;3.08;;
21987;SDS011;11158;53.404;-1.510;2023-03-05T07:27:55;4.88;;;3.03;;
21987;SDS011;11158;53.404;-1.510;2023-03-05T07:30:21;3.05;;;2.70;;
21987;SDS011;11158;53.404;-1.510;2023-03-05T07:32:46;3.47;;;2.70;;
21987;SDS011;11158;53.404;-1.510;2023-03-05T07:35:12;3.83;;;3.30;;
21987;SDS011;11158;53.404;-1.510;2023-03-05T07:37:37;3.17;;;2.70;;
21987;SDS011;11158;53.404;-1.510;2023-03-05T07:40:03;7.32;;;2.80;;
21987;SDS011;11158;53.404;-1.510;2023-03-05T07:42:30;5.55;;;2.40;;
21987;SDS011;11158;53.404;-1.510;2023-03-05T07:44:55;2.78;;;2.22;;
21987;SDS011;11158;53.404;-1.510;2023-03-05T07:47:21;3.42;;;2.03;;
21987;SDS011;11158;53.404;-1.510;2023-03-05T07:49:49;2.22;;;1.80;;
21987;SDS011;11158;53.404;-1.510;2023-03-05T07:52:15;2.15;;;1.95;;
21987;SDS011;11158;53.404;-1.510;2023-03-05T07:54:41;3.22;;;2.65;;
21987;SDS011;11158;53.404;-1.510;2023-03-05T07:57:07;5.72;;;2.45;;
21987;SDS011;11158;53.404;-1.510;2023-03-05T07:59:34;3.38;;;2.60;;
21987;SDS011;11158;53.404;-1.510;2023-03-05T08:02:01;2.42;;;2.22;;
21987;SDS011;11158;53.404;-1.510;2023-03-05T08:04:26;5.93;;;2.47;;
21987;SDS011;11158;53.404;-1.510;2023-03-05T08:06:54;4.78;;;2.60;;
21987;SDS011;11158;53.404;-1.510;2023-03-05T08:09:19;3.38;;;2.72;;
21987;SDS011;11158;53.404;-1.510;2023-03-05T08:11:45;3.47;;;2.47;;
21987;SDS011;11158;53.404;-1.510;2023-03-05T08:14:10;5.10;;;2.80;;
21987;SDS011;11158;53.404;-1.510;2023-03-05T08:16:37;6.45;;;2.78;;
21987;SDS011;11158;53.404;-1.510;2023-03-05T08:19:03;5.30;;;2.97;;
21987;SDS011;11158;53.404;-1.510;2023-03-05T08:21:30;5.78;;;3.78;;
21987;SDS011;11158;53.404;-1.510;2023-03-05T08:24:01;6.72;;;4.22;;
21987;SDS011;11158;53.404;-1.510;2023-03-05T08:26:29;5.45;;;3.28;;
21987;SDS011;11158;53.404;-1.510;2023-03-05T08:28:57;3.22;;;2.83;;
21987;SDS011;11158;53.404;-1.510;2023-03-05T08:31:23;5.63;;;3.20;;
21987;SDS011;11158;53.404;-1.510;2023-03-05T08:33:52;3.92;;;3.22;;
21987;SDS011;11158;53.404;-1.510;2023-03-05T08:36:19;3.38;;;2.72;;
21987;SDS011;11158;53.404;-1.510;2023-03-05T08:38:45;5.03;;;3.08;;
21987;SDS011;11158;53.404;-1.510;2023-03-05T08:41:13;4.10;;;3.13;;
21987;SDS011;11158;53.404;-1.510;2023-03-05T08:43:40;5.38;;;3.45;;
21987;SDS011;11158;53.404;-1.510;2023-03-05T08:46:05;5.07;;;3.70;;
21987;SDS011;11158;53.404;-1.510;2023-03-05T08:48:31;5.40;;;3.05;;
21987;SDS011;11158;53.404;-1.510;2023-03-05T08:51:08;3.78;;;2.20;;
21987;SDS011;11158;53.404;-1.510;2023-03-05T08:53:38;4.40;;;2.50;;
21987;SDS011;11158;53.404;-1.510;2023-03-05T08:56:04;2.75;;;2.03;;
21987;SDS011;11158;53.404;-1.510;2023-03-05T08:58:31;4.70;;;2.20;;
21987;SDS011;11158;53.404;-1.510;2023-03-05T09:00:56;2.80;;;1.80;;
21987;SDS011;11158;53.404;-1.510;2023-03-05T09:03:22;4.45;;;1.90;;
21987;SDS011;11158;53.404;-1.510;2023-03-05T09:05:48;3.72;;;2.00;;
21987;SDS011;11158;53.404;-1.510;2023-03-05T09:08:14;3.10;;;1.88;;
21987;SDS011;11158;53.404;-1.510;2023-03-05T09:10:40;2.25;;;1.83;;
21987;SDS011;11158;53.404;-1.510;2023-03-05T09:13:07;2.78;;;1.80;;
21987;SDS011;11158;53.404;-1.510;2023-03-05T09:15:34;3.35;;;1.80;;
21987;SDS011;11158;53.404;-1.510;2023-03-05T09:18:00;3.45;;;2.25;;
21987;SDS011;11158;53.404;-1.510;2023-03-05T09:20:26;3.33;;;2.25;;
21987;SDS011;11158;53.404;-1.510;2023-03-05T09:22:52;8.73;;;3.30;;
21987;SDS011;11158;53.404;-1.510;2023-03-05T09:25:18;5.45;;;3.00;;
21987;SDS011;11158;53.404;-1.510;2023-03-05T09:27:46;4.57;;;2.97;;
21987;SDS011;11158;53.404;-1.510;2023-03-05T09:30:12;4.00;;;3.22;;
21987;SDS011;11158;53.404;-1.510;2023-03-05T09:32:38;3.47;;;2.80;;
21987;SDS011;11158;53.404;-1.510;2023-03-05T09:35:04;4.43;;;3.05;;
21987;SDS011;11158;53.404;-1.510;2023-03-05T09:37:30;3.33;;;2.55;;
21987;SDS011;11158;53.404;-1.510;2023-03-05T09:39:56;4.50;;;2.85;;
21987;SDS011;11158;53.404;-1.510;2023-03-05T09:56:09;4.97;;;3.58;;
21987;SDS011;11158;53.404;-1.510;2023-03-05T09:58:38;6.10;;;3.70;;
21987;SDS011;11158;53.404;-1.510;2023-03-05T10:01:07;6.63;;;3.55;;
21987;SDS011;11158;53.404;-1.510;2023-03-05T10:06:45;4.47;;;3.35;;
21987;SDS011;11158;53.404;-1.510;2023-03-05T10:12:17;4.57;;;3.47;;
21987;SDS011;11158;53.404;-1.510;2023-03-05T10:14:45;5.93;;;4.40;;
21987;SDS011;11158;53.404;-1.510;2023-03-05T10:20:21;6.30;;;3.65;;
21987;SDS011;11158;53.404;-1.510;2023-03-05T10:45:30;4.95;;;4.07;;
21987;SDS011;11158;53.404;-1.510;2023-03-05T10:50:19;6.05;;;4.53;;
21987;SDS011;11158;53.404;-1.510;2023-03-05T10:52:45;5.43;;;3.95;;
21987;SDS011;11158;53.404;-1.510;2023-03-05T10:55:20;5.43;;;4.38;;
21987;SDS011;11158;53.404;-1.510;2023-03-05T10:57:46;7.10;;;4.60;;
21987;SDS011;11158;53.404;-1.510;2023-03-05T11:00:19;7.75;;;4.30;;
21987;SDS011;11158;53.404;-1.510;2023-03-05T11:03:08;6.75;;;4.50;;
21987;SDS011;11158;53.404;-1.510;2023-03-05T11:13:40;5.40;;;4.78;;
21987;SDS011;11158;53.404;-1.510;2023-03-05T11:16:21;5.57;;;4.60;;
21987;SDS011;11158;53.404;-1.510;2023-03-05T11:18:47;7.15;;;4.97;;
21987;SDS011;11158;53.404;-1.510;2023-03-05T11:21:23;7.25;;;5.40;;
21987;SDS011;11158;53.404;-1.510;2023-03-05T11:24:11;5.57;;;4.63;;
21987;SDS011;11158;53.404;-1.510;2023-03-05T11:26:49;8.07;;;4.65;;
21987;SDS011;11158;53.404;-1.510;2023-03-05T11:29:18;5.43;;;4.45;;
21987;SDS011;11158;53.404;-1.510;2023-03-05T11:31:44;7.25;;;4.90;;
21987;SDS011;11158;53.404;-1.510;2023-03-05T11:37:03;9.55;;;5.40;;
21987;SDS011;11158;53.404;-1.510;2023-03-05T11:39:30;7.60;;;4.78;;
21987;SDS011;11158;53.404;-1.510;2023-03-05T11:44:47;7.00;;;5.30;;
21987;SDS011;11158;53.404;-1.510;2023-03-05T11:50:35;7.03;;;4.72;;
21987;SDS011;11158;53.404;-1.510;2023-03-05T11:52:47;7.50;;;4.82;;
21987;SDS011;11158;53.404;-1.510;2023-03-05T11:55:19;5.75;;;4.38;;
21987;SDS011;11158;53.404;-1.510;2023-03-05T12:00:33;4.80;;;3.42;;
21987;SDS011;11158;53.404;-1.510;2023-03-05T12:03:03;5.50;;;4.18;;
21987;SDS011;11158;53.404;-1.510;2023-03-05T12:05:36;6.90;;;4.70;;
21987;SDS011;11158;53.404;-1.510;2023-03-05T12:08:08;7.72;;;4.20;;
21987;SDS011;11158;53.404;-1.510;2023-03-05T12:10:38;7.40;;;4.40;;
21987;SDS011;11158;53.404;-1.510;2023-03-05T12:13:14;5.70;;;4.22;;
21987;SDS011;11158;53.404;-1.510;2023-03-05T12:16:07;9.02;;;4.82;;
21987;SDS011;11158;53.404;-1.510;2023-03-05T12:18:46;5.68;;;3.95;;
21987;SDS011;11158;53.404;-1.510;2023-03-05T12:21:29;5.35;;;3.55;;
21987;SDS011;11158;53.404;-1.510;2023-03-05T12:23:59;5.32;;;3.53;;
21987;SDS011;11158;53.404;-1.510;2023-03-05T12:29:37;2.50;;;2.00;;
21987;SDS011;11158;53.404;-1.510;2023-03-05T12:34:56;2.88;;;2.38;;
21987;SDS011;11158;53.404;-1.510;2023-03-05T12:39:49;3.05;;;2.42;;
21987;SDS011;11158;53.404;-1.510;2023-03-05T12:47:37;5.45;;;2.75;;
21987;SDS011;11158;53.404;-1.510;2023-03-05T12:50:04;3.83;;;2.60;;
21987;SDS011;11158;53.404;-1.510;2023-03-05T12:52:50;4.88;;;2.72;;
21987;SDS011;11158;53.404;-1.510;2023-03-05T12:55:23;6.35;;;3.20;;
21987;SDS011;11158;53.404;-1.510;2023-03-05T13:00:47;2.95;;;2.65;;
21987;SDS011;11158;53.404;-1.510;2023-03-05T13:03:27;3.55;;;2.72;;
21987;SDS011;11158;53.404;-1.510;2023-03-05T13:05:58;4.15;;;3.00;;
21987;SDS011;11158;53.404;-1.510;2023-03-05T13:08:26;6.60;;;3.03;;
21987;SDS011;11158;53.404;-1.510;2023-03-05T13:13:25;8.30;;;4.70;;
21987;SDS011;11158;53.404;-1.510;2023-03-05T13:15:53;6.63;;;3.97;;
21987;SDS011;11158;53.404;-1.510;2023-03-05T13:18:23;6.78;;;3.65;;
21987;SDS011;11158;53.404;-1.510;2023-03-05T13:21:07;3.80;;;2.45;;
21987;SDS011;11158;53.404;-1.510;2023-03-05T13:23:37;8.75;;;5.53;;
21987;SDS011;11158;53.404;-1.510;2023-03-05T13:26:22;8.88;;;5.38;;
21987;SDS011;11158;53.404;-1.510;2023-03-05T13:29:11;3.10;;;2.60;;
21987;SDS011;11158;53.404;-1.510;2023-03-05T13:32:00;2.15;;;1.95;;
21987;SDS011;11158;53.404;-1.510;2023-03-05T13:34:27;4.90;;;2.40;;
21987;SDS011;11158;53.404;-1.510;2023-03-05T13:37:00;2.50;;;2.30;;
21987;SDS011;11158;53.404;-1.510;2023-03-05T13:39:29;4.60;;;2.55;;
21987;SDS011;11158;53.404;-1.510;2023-03-05T13:41:59;3.08;;;2.38;;
21987;SDS011;11158;53.404;-1.510;2023-03-05T13:44:31;3.40;;;2.70;;
21987;SDS011;11158;53.404;-1.510;2023-03-05T13:47:17;4.07;;;2.50;;
21987;SDS011;11158;53.404;-1.510;2023-03-05T13:49:45;2.92;;;2.05;;
21987;SDS011;11158;53.404;-1.510;2023-03-05T13:52:12;3.20;;;2.38;;
21987;SDS011;11158;53.404;-1.510;2023-03-05T13:54:48;3.92;;;2.85;;
21987;SDS011;11158;53.404;-1.510;2023-03-05T14:00:07;3.28;;;2.55;;
21987;SDS011;11158;53.404;-1.510;2023-03-05T14:02:49;4.10;;;2.83;;
21987;SDS011;11158;53.404;-1.510;2023-03-05T14:05:15;2.72;;;2.53;;
21987;SDS011;11158;53.404;-1.510;2023-03-05T14:07:41;3.08;;;2.35;;
21987;SDS011;11158;53.404;-1.510;2023-03-05T14:12:51;2.28;;;2.08;;
21987;SDS011;11158;53.404;-1.510;2023-03-05T14:15:22;3.33;;;2.50;;
21987;SDS011;11158;53.404;-1.510;2023-03-05T14:17:51;3.08;;;2.15;;
21987;SDS011;11158;53.404;-1.510;2023-03-05T14:20:31;2.13;;;1.80;;
21987;SDS011;11158;53.404;-1.510;2023-03-05T14:22:58;3.25;;;1.92;;
21987;SDS011;11158;53.404;-1.510;2023-03-05T14:27:57;1.95;;;1.75;;
21987;SDS011;11158;53.404;-1.510;2023-03-05T14:30:23;5.00;;;2.20;;
21987;SDS011;11158;53.404;-1.510;2023-03-05T14:32:50;3.08;;;2.20;;
21987;SDS011;11158;53.404;-1.510;2023-03-05T14:35:19;2.70;;;2.30;;
21987;SDS011;11158;53.404;-1.510;2023-03-05T14:37:48;4.57;;;2.20;;
21987;SDS011;11158;53.404;-1.510;2023-03-05T14:40:34;4.72;;;2.30;;
21987;SDS011;11158;53.404;-1.510;2023-03-05T14:43:01;5.70;;;3.08;;
21987;SDS011;11158;53.404;-1.510;2023-03-05T14:45:35;3.30;;;2.65;;
21987;SDS011;11158;53.404;-1.510;2023-03-05T14:48:04;5.35;;;3.50;;
21987;SDS011;11158;53.404;-1.510;2023-03-05T14:50:32;5.95;;;2.38;;
21987;SDS011;11158;53.404;-1.510;2023-03-05T14:53:07;3.35;;;2.30;;
21987;SDS011;11158;53.404;-1.510;2023-03-05T14:55:37;3.25;;;2.10;;
21987;SDS011;11158;53.404;-1.510;2023-03-05T14:58:11;2.63;;;2.25;;
21987;SDS011;11158;53.404;-1.510;2023-03-05T15:00:39;3.08;;;2.58;;
21987;SDS011;11158;53.404;-1.510;2023-03-05T15:03:05;8.02;;;2.40;;
21987;SDS011;11158;53.404;-1.510;2023-03-05T15:05:31;3.35;;;2.15;;
21987;SDS011;11158;53.404;-1.510;2023-03-05T15:07:57;3.30;;;2.47;;
21987;SDS011;11158;53.404;-1.510;2023-03-05T15:10:24;5.00;;;2.63;;
21987;SDS011;11158;53.404;-1.510;2023-03-05T15:12:50;3.80;;;2.45;;
21987;SDS011;11158;53.404;-1.510;2023-03-05T15:15:18;3.30;;;1.90;;
21987;SDS011;11158;53.404;-1.510;2023-03-05T15:17:45;3.15;;;2.20;;
21987;SDS011;11158;53.404;-1.510;2023-03-05T15:20:13;2.67;;;2.22;;
21987;SDS011;11158;53.404;-1.510;2023-03-05T15:22:51;2.97;;;2.17;;
21987;SDS011;11158;53.404;-1.510;2023-03-05T15:25:17;8.00;;;6.30;;
21987;SDS011;11158;53.404;-1.510;2023-03-05T15:27:44;3.45;;;2.10;;
21987;SDS011;11158;53.404;-1.510;2023-03-05T15:30:17;4.38;;;2.88;;
21987;SDS011;11158;53.404;-1.510;2023-03-05T15:32:47;3.95;;;2.50;;
21987;SDS011;11158;53.404;-1.510;2023-03-05T15:35:13;7.53;;;3.13;;
21987;SDS011;11158;53.404;-1.510;2023-03-05T15:37:38;5.05;;;2.20;;
21987;SDS011;11158;53.404;-1.510;2023-03-05T15:40:04;3.13;;;1.98;;
21987;SDS011;11158;53.404;-1.510;2023-03-05T15:42:30;5.22;;;2.20;;
21987;SDS011;11158;53.404;-1.510;2023-03-05T15:44:56;5.30;;;2.33;;
21987;SDS011;11158;53.404;-1.510;2023-03-05T15:47:22;4.38;;;2.60;;
21987;SDS011;11158;53.404;-1.510;2023-03-05T15:49:47;2.83;;;2.20;;
21987;SDS011;11158;53.404;-1.510;2023-03-05T15:52:13;5.35;;;2.10;;
21987;SDS011;11158;53.404;-1.510;2023-03-05T15:54:54;3.40;;;2.65;;
21987;SDS011;11158;53.404;-1.510;2023-03-05T15:57:20;3.63;;;2.97;;
21987;SDS011;11158;53.404;-1.510;2023-03-05T15:59:47;4.68;;;2.72;;
21987;SDS011;11158;53.404;-1.510;2023-03-05T16:02:13;4.63;;;2.33;;
21987;SDS011;11158;53.404;-1.510;2023-03-05T16:04:38;3.03;;;2.28;;
21987;SDS011;11158;53.404;-1.510;2023-03-05T16:07:04;3.42;;;2.10;;
21987;SDS011;11158;53.404;-1.510;2023-03-05T16:09:34;3.10;;;2.05;;
21987;SDS011;11158;53.404;-1.510;2023-03-05T16:12:04;6.32;;;3.72;;
21987;SDS011;11158;53.404;-1.510;2023-03-05T16:14:35;6.25;;;3.55;;
21987;SDS011;11158;53.404;-1.510;2023-03-05T16:17:04;2.67;;;2.45;;